createdAt,value
2019-02-20T00:02:50.381Z,98810.28
2019-02-20T00:09:16.217Z,98812.59
2019-02-20T00:15:45.344Z,98809.88
2019-02-20T00:22:23.355Z,98815.98
2019-02-20T00:28:48.924Z,98811.25
2019-02-20T00:34:42.682Z,98822.60
2019-02-20T00:41:10.513Z,98829.25
2019-02-20T00:48:15.491Z,98823.64
2019-02-20T00:54:41.334Z,98832.84
2019-02-20T01:00:33.023Z,98835.64
2019-02-20T01:07:02.882Z,98835.02
2019-02-20T01:13:40.832Z,98836.28
2019-02-20T01:20:05.639Z,98838.35
2019-02-20T01:26:32.464Z,98841.97
2019-02-20T01:32:33.831Z,98842.37
2019-02-20T01:39:12.791Z,98835.75
2019-02-20T01:45:36.592Z,98829.17
2019-02-20T01:52:04.632Z,98830.33
2019-02-20T02:01:33.026Z,98817.94
2019-02-20T02:07:58.873Z,98819.39
2019-02-20T02:14:36.039Z,98817.05
2019-02-20T02:21:01.637Z,98809.34
2019-02-20T02:27:28.335Z,98815.22
2019-02-20T02:33:30.241Z,98807.44
2019-02-20T02:39:55.841Z,98806.64
2019-02-20T02:46:21.683Z,98807.05
2019-02-20T02:52:48.712Z,98787.75
2019-02-20T03:03:03.595Z,98783.19
2019-02-20T03:09:40.520Z,98782.67
2019-02-20T03:16:06.345Z,98784.17
2019-02-20T03:22:34.391Z,98781.50
2019-02-20T03:28:26.882Z,98791.55
2019-02-20T03:34:28.185Z,98797.52
2019-02-20T03:40:54.034Z,98791.45
2019-02-20T03:47:20.302Z,98795.41
2019-02-20T03:53:59.660Z,98794.73
2019-02-20T04:04:03.834Z,98793.14
2019-02-20T04:10:30.872Z,98805.09
2019-02-20T04:16:58.395Z,98811.00
2019-02-20T04:23:26.561Z,98817.52
2019-02-20T04:30:03.485Z,98814.70
2019-02-20T04:35:52.941Z,98817.17
2019-02-20T04:42:18.764Z,98823.05
2019-02-20T04:48:55.359Z,98834.41
2019-02-20T04:55:25.559Z,98834.50
2019-02-20T05:05:28.524Z,98845.16
2019-02-20T05:11:54.933Z,98839.09
2019-02-20T05:18:19.950Z,98839.30
2019-02-20T05:24:59.113Z,98839.39
2019-02-20T05:31:25.939Z,98838.45
2019-02-20T05:37:53.784Z,98838.98
2019-02-20T05:44:30.715Z,98833.47
2019-02-20T05:51:00.572Z,98828.17
2019-02-20T05:57:26.173Z,98846.33
2019-02-20T06:07:29.363Z,98856.36
2019-02-20T06:13:59.880Z,98853.05
2019-02-20T06:20:42.946Z,98862.22
2019-02-20T06:27:09.046Z,98867.10
2019-02-20T06:33:36.883Z,98863.91
2019-02-20T06:40:15.835Z,98876.76
2019-02-20T06:46:40.639Z,98871.78
2019-02-20T06:53:08.163Z,98879.17
2019-02-20T06:59:49.453Z,98895.39
2019-02-20T07:10:41.914Z,98905.88
2019-02-20T07:17:42.074Z,98906.20
2019-02-20T07:25:02.824Z,98915.62
2019-02-20T07:31:35.362Z,98920.21
2019-02-20T07:38:00.918Z,98927.67
2019-02-20T07:44:26.963Z,98929.48
2019-02-20T07:50:53.790Z,98929.89
2019-02-20T07:57:32.387Z,98928.34
2019-02-20T08:04:02.357Z,98946.14
2019-02-20T08:10:19.992Z,98945.31
2019-02-20T08:16:58.948Z,98956.48
2019-02-20T08:23:26.029Z,98968.38
2019-02-20T08:29:54.970Z,98971.87
2019-02-20T08:35:55.194Z,98973.71
2019-02-20T08:42:40.522Z,98977.91
2019-02-20T08:49:16.390Z,98969.28
2019-02-20T08:55:43.303Z,98975.22
2019-02-20T09:02:20.231Z,98979.40
2019-02-20T09:12:10.071Z,98978.80
2019-02-20T09:18:35.892Z,98990.69
2019-02-20T09:25:01.500Z,98990.28
2019-02-20T09:31:28.540Z,98990.06
2019-02-20T09:38:04.469Z,98994.35
2019-02-20T09:44:28.062Z,98993.44
2019-02-20T09:50:55.091Z,98993.11
2019-02-20T09:57:31.014Z,98992.32
2019-02-20T10:03:55.819Z,98988.68
2019-02-20T10:13:57.780Z,98991.42
2019-02-20T10:20:25.622Z,98991.08
2019-02-20T10:27:00.208Z,98993.91
2019-02-20T10:33:33.420Z,98989.23
2019-02-20T10:40:01.261Z,98985.47
2019-02-20T10:46:26.878Z,98991.30
2019-02-20T10:53:03.786Z,98991.27
2019-02-20T10:59:30.844Z,98990.14
2019-02-20T11:05:19.031Z,98975.08
2019-02-20T11:15:24.019Z,98971.81
2019-02-20T11:21:51.922Z,98969.45
2019-02-20T11:28:31.069Z,98964.20
2019-02-20T11:34:59.925Z,98960.12
2019-02-20T11:41:27.491Z,98958.90
2019-02-20T11:48:06.714Z,98948.23
2019-02-20T11:54:34.347Z,98944.80
2019-02-20T12:01:01.383Z,98939.11
2019-02-20T12:06:51.656Z,98934.19
2019-02-20T12:17:07.951Z,98935.60
2019-02-20T12:23:46.912Z,98936.83
2019-02-20T12:30:12.495Z,98938.57
2019-02-20T12:36:38.347Z,98928.45
2019-02-20T12:43:07.059Z,98920.98
2019-02-20T12:49:33.227Z,98920.60
2019-02-20T12:55:59.041Z,98923.24
2019-02-20T13:02:24.616Z,98914.55
2019-02-20T13:09:01.793Z,98918.36
2019-02-20T13:19:19.618Z,98914.86
2019-02-20T13:25:43.707Z,98906.74
2019-02-20T13:32:11.324Z,98904.47
2019-02-20T13:38:48.484Z,98905.13
2019-02-20T13:45:16.120Z,98904.01
2019-02-20T13:51:46.887Z,98902.09
2019-02-20T13:58:15.038Z,98902.80
2019-02-20T14:04:55.794Z,98901.18
2019-02-20T14:11:22.834Z,98905.09
2019-02-20T14:21:29.496Z,98902.17
2019-02-20T14:27:55.665Z,98904.31
2019-02-20T14:34:32.595Z,98908.39
2019-02-20T14:41:00.445Z,98892.44
2019-02-20T14:43:56.172Z,98896.67
2019-02-20T14:50:01.681Z,98897.66
2019-02-20T14:56:28.628Z,98892.91
2019-02-20T15:02:54.444Z,98893.40
2019-02-20T15:09:35.414Z,98890.45
2019-02-20T15:16:01.025Z,98887.49
2019-02-20T15:22:25.934Z,98891.42
2019-02-20T15:28:51.866Z,98891.08
2019-02-20T15:35:19.711Z,98899.26
2019-02-20T15:41:45.523Z,98904.79
2019-02-20T15:52:01.295Z,98912.01
2019-02-20T15:58:29.489Z,98907.45
2019-02-20T16:05:10.444Z,98904.67
2019-02-20T16:11:43.013Z,98905.19
2019-02-20T16:18:09.157Z,98906.66
2019-02-20T16:24:49.871Z,98910.36
2019-02-20T16:31:17.765Z,98924.38
2019-02-20T16:37:45.804Z,98926.29
2019-02-20T16:44:10.615Z,98929.62
2019-02-20T16:54:13.585Z,98930.56
2019-02-20T17:00:56.307Z,98941.66
2019-02-20T17:06:46.037Z,98953.05
2019-02-20T17:13:11.519Z,98956.83
2019-02-20T17:19:51.823Z,98965.53
2019-02-20T17:26:22.688Z,98974.84
2019-02-20T17:32:49.519Z,98981.98
2019-02-20T17:39:15.337Z,98982.09
2019-02-20T17:45:54.012Z,98995.17
2019-02-20T17:55:58.942Z,98997.08
2019-02-20T18:02:29.132Z,99009.08
2019-02-20T18:08:20.616Z,99018.71
2019-02-20T18:14:48.231Z,99020.41
2019-02-20T18:21:15.223Z,99026.56
2019-02-20T18:27:41.115Z,99031.60
2019-02-20T18:34:08.960Z,99032.00
2019-02-20T18:40:15.579Z,99045.46
2019-02-20T18:46:41.402Z,99052.03
2019-02-20T18:56:54.286Z,99062.94
2019-02-20T19:03:21.300Z,99061.20
2019-02-20T19:09:51.170Z,99064.53
2019-02-20T19:17:17.361Z,99069.80
2019-02-20T19:24:56.124Z,99074.72
2019-02-20T19:32:38.576Z,99090.25
2019-02-20T19:36:27.549Z,99091.04
2019-02-20T19:43:41.262Z,99086.95
2019-02-20T19:51:14.341Z,99089.40
2019-02-20T19:58:40.825Z,99078.03
2019-02-20T20:06:12.702Z,99079.95
2019-02-20T20:13:39.495Z,99086.24
2019-02-20T20:20:37.224Z,99084.84
2019-02-20T20:24:36.596Z,99085.78
2019-02-20T20:31:49.972Z,99091.08
2019-02-20T20:39:01.998Z,99088.48
2019-02-20T20:46:33.390Z,99094.03
2019-02-20T20:53:51.949Z,99104.02
2019-02-20T21:01:01.756Z,99112.84
2019-02-20T21:08:16.346Z,99114.60
2019-02-20T21:15:44.948Z,99117.89
2019-02-20T21:22:13.581Z,99118.10
2019-02-20T21:29:39.204Z,99117.02
2019-02-20T21:36:54.517Z,99121.12
2019-02-20T21:44:05.559Z,99115.59
2019-02-20T21:51:24.126Z,99117.58
2019-02-20T21:59:07.504Z,99116.75
2019-02-20T22:06:29.085Z,99126.81
2019-02-20T22:13:40.355Z,99126.85
2019-02-20T22:20:24.255Z,99128.23
2019-02-20T22:27:45.725Z,99130.34
2019-02-20T22:34:40.749Z,99137.36
2019-02-20T22:42:14.994Z,99144.44
2019-02-20T22:49:43.516Z,99152.45
2019-02-20T22:53:15.065Z,99159.83
2019-02-20T23:00:01.983Z,99157.56
2019-02-20T23:07:28.312Z,99160.20
2019-02-20T23:15:00.804Z,99161.92
2019-02-20T23:21:33.397Z,99178.03
2019-02-20T23:28:05.563Z,99175.11
2019-02-20T23:34:32.391Z,99176.92
2019-02-20T23:41:00.081Z,99183.06
2019-02-20T23:47:39.034Z,99184.05
2019-02-20T23:54:03.993Z,99186.05
